createdAt,value
2023-02-03T00:00:25.269Z,2.43
2023-02-03T00:06:05.183Z,2.43
2023-02-03T00:11:27.681Z,2.42
2023-02-03T00:16:49.580Z,2.44
2023-02-03T00:22:11.742Z,2.42
2023-02-03T00:27:33.693Z,2.44
2023-02-03T00:32:55.702Z,2.38
2023-02-03T00:38:17.227Z,2.37
2023-02-03T00:43:39.118Z,2.27
2023-02-03T00:49:00.914Z,2.16
2023-02-03T00:54:23.818Z,2.14
2023-02-03T00:59:45.721Z,2.15
2023-02-03T01:05:08.399Z,2.18
2023-02-03T01:10:30.333Z,2.28
2023-02-03T01:15:52.106Z,2.21
2023-02-03T01:21:17.990Z,2.17
2023-02-03T01:26:39.999Z,2.15
2023-02-03T01:32:02.332Z,2.12
2023-02-03T01:37:24.213Z,1.99
2023-02-03T01:42:46.269Z,1.96
2023-02-03T01:48:09.236Z,1.96
2023-02-03T01:53:31.969Z,1.99
2023-02-03T01:58:54.692Z,1.95
2023-02-03T02:04:16.532Z,1.91
2023-02-03T02:09:38.567Z,1.94
2023-02-03T02:15:00.502Z,1.87
2023-02-03T02:20:30.479Z,1.79
2023-02-03T02:26:14.338Z,1.73
2023-02-03T02:32:00.418Z,1.74
2023-02-03T02:37:37.083Z,1.74
2023-02-03T02:43:13.573Z,1.72
2023-02-03T02:48:41.167Z,1.71
2023-02-03T02:54:06.572Z,1.72
2023-02-03T02:59:28.270Z,1.67
2023-02-03T03:04:51.248Z,1.53
2023-02-03T03:10:16.868Z,1.52
2023-02-03T03:15:40.149Z,1.56
2023-02-03T03:21:06.602Z,1.57
2023-02-03T03:26:50.751Z,1.54
2023-02-03T03:32:12.537Z,1.59
2023-02-03T03:37:37.219Z,1.57
2023-02-03T03:43:11.521Z,1.58
2023-02-03T03:48:48.014Z,1.58
2023-02-03T03:54:12.682Z,1.52
2023-02-03T03:59:38.107Z,1.48
2023-02-03T04:05:00.568Z,1.39
2023-02-03T04:10:36.950Z,1.34
2023-02-03T04:15:58.796Z,1.29
2023-02-03T04:21:22.180Z,1.28
2023-02-03T04:26:43.861Z,1.22
2023-02-03T04:32:05.572Z,1.13
2023-02-03T04:37:27.970Z,1.11
2023-02-03T04:42:49.898Z,0.97
2023-02-03T04:48:11.562Z,0.91
2023-02-03T04:53:36.506Z,0.91
2023-02-03T04:58:58.310Z,1.00
2023-02-03T05:04:20.291Z,0.99
2023-02-03T05:09:42.394Z,0.94
2023-02-03T05:15:04.847Z,0.94
2023-02-03T05:20:27.017Z,0.90
2023-02-03T05:25:48.791Z,0.87
2023-02-03T05:31:10.781Z,0.79
2023-02-03T05:36:32.615Z,0.79
2023-02-03T05:41:56.575Z,0.80
2023-02-03T05:47:19.071Z,0.84
2023-02-03T05:52:40.772Z,0.88
2023-02-03T05:58:02.671Z,0.97
2023-02-03T06:03:24.845Z,0.96
2023-02-03T06:08:46.775Z,1.06
2023-02-03T06:14:08.637Z,1.11
2023-02-03T06:19:30.447Z,1.15
2023-02-03T06:24:52.284Z,1.17
2023-02-03T06:30:16.369Z,1.10
2023-02-03T06:35:38.325Z,1.06
2023-02-03T06:41:00.202Z,0.99
2023-02-03T06:46:22.315Z,0.87
2023-02-03T06:51:45.328Z,0.90
2023-02-03T06:57:07.071Z,0.89
2023-02-03T07:02:29.251Z,0.87
2023-02-03T07:07:51.481Z,0.87
2023-02-03T07:13:13.124Z,0.90
2023-02-03T07:18:47.015Z,0.99
2023-02-03T07:24:10.761Z,1.06
2023-02-03T07:29:32.625Z,1.07
2023-02-03T07:34:54.954Z,1.15
2023-02-03T07:40:17.067Z,1.24
2023-02-03T07:45:39.175Z,1.26
2023-02-03T07:51:01.209Z,1.21
2023-02-03T07:56:23.235Z,1.25
2023-02-03T08:01:45.135Z,1.34
2023-02-03T08:07:07.252Z,1.39
2023-02-03T08:12:29.325Z,1.43
2023-02-03T08:17:51.563Z,1.46
2023-02-03T08:23:13.279Z,1.45
2023-02-03T08:28:35.316Z,1.42
2023-02-03T08:39:34.625Z,1.46
2023-02-03T08:44:56.453Z,1.50
2023-02-03T08:50:20.016Z,1.41
2023-02-03T08:55:43.225Z,1.33
2023-02-03T09:01:13.140Z,1.32
2023-02-03T09:06:36.292Z,1.40
2023-02-03T09:12:02.493Z,1.44
2023-02-03T09:17:24.493Z,1.42
2023-02-03T09:22:46.216Z,1.49
2023-02-03T09:28:08.222Z,1.48
2023-02-03T09:33:30.680Z,1.45
2023-02-03T09:38:52.409Z,1.45
2023-02-03T09:44:35.660Z,1.42
2023-02-03T09:50:00.294Z,1.37
2023-02-03T09:55:35.531Z,1.44
2023-02-03T10:00:59.108Z,1.49
2023-02-03T10:06:33.327Z,1.45
2023-02-03T10:12:10.746Z,1.51
2023-02-03T10:17:34.268Z,1.65
2023-02-03T10:23:04.158Z,1.76
2023-02-03T10:28:31.510Z,1.69
2023-02-03T10:34:11.949Z,1.68
2023-02-03T10:39:45.518Z,1.71
2023-02-03T10:45:11.964Z,1.68
2023-02-03T10:50:34.697Z,1.69
2023-02-03T10:56:10.276Z,1.69
2023-02-03T11:01:47.135Z,1.72
2023-02-03T11:07:24.604Z,1.74
2023-02-03T11:12:46.266Z,1.79
2023-02-03T11:18:25.877Z,1.83
2023-02-03T11:23:51.024Z,1.78
2023-02-03T11:29:19.250Z,1.80
2023-02-03T11:34:47.300Z,1.77
2023-02-03T11:40:11.138Z,1.75
2023-02-03T11:45:39.481Z,1.78
2023-02-03T11:51:12.282Z,1.79
2023-02-03T11:56:49.445Z,1.84
2023-02-03T12:02:39.906Z,1.91
2023-02-03T12:08:19.318Z,1.95
2023-02-03T12:14:00.400Z,1.95
2023-02-03T12:19:41.961Z,1.87
2023-02-03T12:25:10.210Z,1.97
2023-02-03T12:30:37.117Z,2.00
2023-02-03T12:36:07.847Z,1.97
2023-02-03T12:41:36.264Z,1.97
2023-02-03T12:47:26.599Z,2.04
2023-02-03T12:52:55.760Z,2.05
2023-02-03T12:58:24.553Z,2.03
2023-02-03T13:03:50.760Z,2.00
2023-02-03T13:09:32.264Z,1.90
2023-02-03T13:15:20.271Z,1.86
2023-02-03T13:20:41.903Z,1.79
2023-02-03T13:26:12.971Z,1.74
2023-02-03T13:31:47.457Z,1.72
2023-02-03T13:37:37.581Z,1.73
2023-02-03T13:43:05.815Z,1.75
2023-02-03T13:48:30.118Z,1.76
2023-02-03T13:53:59.872Z,1.74
2023-02-03T13:59:49.875Z,1.81
2023-02-03T14:05:39.357Z,1.83
2023-02-03T14:11:35.711Z,1.83
2023-02-03T14:16:57.989Z,1.87
2023-02-03T14:22:19.946Z,1.91
2023-02-03T14:27:41.915Z,1.90
2023-02-03T14:33:04.434Z,1.85
2023-02-03T14:38:31.674Z,1.80
2023-02-03T14:44:04.392Z,1.81
2023-02-03T14:49:43.340Z,1.87
2023-02-03T14:55:25.219Z,1.96
2023-02-03T15:00:48.868Z,2.02
2023-02-03T15:06:37.930Z,2.05
2023-02-03T15:11:59.881Z,2.09
2023-02-03T15:17:27.991Z,2.13
2023-02-03T15:22:50.101Z,2.20
2023-02-03T15:28:20.501Z,2.37
2023-02-03T15:33:44.498Z,2.47
2023-02-03T15:39:21.481Z,2.58
2023-02-03T15:45:00.622Z,2.72
2023-02-03T15:50:28.553Z,2.80
2023-02-03T15:55:54.502Z,2.86
2023-02-03T16:01:20.021Z,2.88
2023-02-03T16:06:46.449Z,2.96
2023-02-03T16:12:16.120Z,3.14
2023-02-03T16:17:40.343Z,3.24
2023-02-03T16:23:03.535Z,3.33
2023-02-03T16:28:44.822Z,3.45
2023-02-03T16:34:37.338Z,3.56
2023-02-03T16:40:18.021Z,3.70
2023-02-03T16:45:58.811Z,3.82
2023-02-03T16:51:21.833Z,3.86
2023-02-03T16:56:43.493Z,3.85
2023-02-03T17:02:05.445Z,3.89
2023-02-03T17:07:27.725Z,3.91
2023-02-03T17:12:52.643Z,3.89
2023-02-03T17:18:15.637Z,3.89
2023-02-03T17:23:37.763Z,3.95
2023-02-03T17:29:03.509Z,4.00
2023-02-03T17:34:25.417Z,4.06
2023-02-03T17:56:54.922Z,4.09
2023-02-03T18:02:16.859Z,4.08
2023-02-03T18:07:39.167Z,4.06
2023-02-03T18:13:01.113Z,4.06
2023-02-03T18:18:23.384Z,4.06
2023-02-03T18:23:45.702Z,4.05
2023-02-03T18:29:07.474Z,4.08
2023-02-03T18:34:30.701Z,4.06
2023-02-03T18:39:52.338Z,4.03
2023-02-03T18:45:15.048Z,3.98
2023-02-03T18:50:37.024Z,3.95
2023-02-03T18:55:59.183Z,3.91
2023-02-03T19:01:26.905Z,3.91
2023-02-03T19:06:49.387Z,3.80
2023-02-03T19:12:11.984Z,3.68
2023-02-03T19:17:34.001Z,3.62
2023-02-03T19:22:56.844Z,3.62
2023-02-03T19:28:29.936Z,3.59
2023-02-03T19:33:52.747Z,3.59
2023-02-03T19:39:15.761Z,3.60
2023-02-03T19:44:37.796Z,3.54
2023-02-03T19:49:59.413Z,3.48
2023-02-03T19:55:21.546Z,3.49
2023-02-03T20:00:43.989Z,3.56
2023-02-03T20:06:06.277Z,3.56
2023-02-03T20:11:29.951Z,3.56
2023-02-03T20:16:52.248Z,3.55
2023-02-03T20:22:15.120Z,3.57
2023-02-03T20:27:39.493Z,3.60
2023-02-03T20:33:07.817Z,3.66
2023-02-03T20:38:32.214Z,3.69
2023-02-03T20:43:54.376Z,3.73
2023-02-03T20:49:19.540Z,3.72
2023-02-03T20:54:42.076Z,3.73
2023-02-03T21:00:17.234Z,3.74
2023-02-03T21:05:46.083Z,3.82
2023-02-03T21:11:18.620Z,3.92
2023-02-03T21:16:41.309Z,3.97
2023-02-03T21:22:17.221Z,4.03
2023-02-03T21:27:38.978Z,3.99
2023-02-03T21:33:06.923Z,4.00
2023-02-03T21:38:35.332Z,3.99
2023-02-03T21:44:01.073Z,4.02
2023-02-03T21:49:25.475Z,4.03
2023-02-03T21:54:50.236Z,4.03
2023-02-03T22:00:41.270Z,4.06
2023-02-03T22:06:27.352Z,4.08
2023-02-03T22:11:49.318Z,4.11
2023-02-03T22:17:14.294Z,4.12
2023-02-03T22:22:36.880Z,4.14
2023-02-03T22:27:58.754Z,4.13
2023-02-03T22:33:20.721Z,4.10
2023-02-03T22:38:43.148Z,4.06
2023-02-03T22:44:05.122Z,4.02
2023-02-03T22:49:27.110Z,4.04
2023-02-03T22:54:48.933Z,3.99
2023-02-03T23:00:12.187Z,3.96
2023-02-03T23:05:34.300Z,3.96
2023-02-03T23:10:56.505Z,4.02
2023-02-03T23:16:18.191Z,4.06
2023-02-03T23:21:42.804Z,4.05
2023-02-03T23:27:05.401Z,4.05
2023-02-03T23:32:27.262Z,4.04
2023-02-03T23:37:49.163Z,4.05
2023-02-03T23:43:11.325Z,4.02
2023-02-03T23:48:36.051Z,4.02
2023-02-03T23:53:58.259Z,4.04
2023-02-03T23:59:20.637Z,4.05
